Avant, OK (74001)

4:02 AM CST on February 13, 2016 (GMT -0600)
East Ridge Estates | | Change Station
CLOSE
Current Station
Personal Weather Station
Location: Sperry, OK
Elevation: 886 ft
Nearby Weather Stations

Elev 886 ft 36.34 °N, 96.09 °W | Updated 14 seconds ago

Partly Cloudy
Partly Cloudy
31.1 °F
Feels Like 31 °F
N
2.5
Wind Variable Wind from ENE
Gusts 4.9 mph

Today
High -- | Low -- °F
--% Chance of Precip.
Yesterday
High -- | Low -- °F
Precip. -- in
Pressure 30.55 in
Visibility 10.0 miles
Clouds Clear
Windchill 31 °F
Dew Point 14 °F
Humidity 49%
Rainfall 0.00 in
Snow Depth Not available.
7:14 AM 6:02 PM
Waxing Crescent, 29% visible
METAR KBVO 130953Z AUTO 03006KT 10SM CLR M02/M12 A3054 RMK AO2 SLP343 T10221122 TSNO $
Pressure 30.55 in
Visibility 10.0 miles
Clouds Clear
Windchill 31 °F
Dew Point 14 °F
Humidity 49%
Rainfall 0.00 in
Snow Depth Not available.
7:14 AM 6:02 PM
Waxing Crescent, 29% visible
METAR KBVO 130953Z AUTO 03006KT 10SM CLR M02/M12 A3054 RMK AO2 SLP343 T10221122 TSNO $

10-Day Weather Forecast

Almanac

Astronomy

Feb. 13, 2016 Rise Set
Actual Time
Civil Twilight
Nautical Twilight
Astronomical Twilight
Moon
Length of Visible Light
Length of Day
Tomorrow will be .
, % of the Moon is Illuminated

Today's Extremes

State Highs State Lows

Community

WunderPhotos

Upload Photos

1,892,536 photos uploaded!

WunderBlog® & News

Nearby

Air Quality

  Air Quality AQ Index Pollutant
Not available.

Snow Depth

Station Depth Elevation

Earthquake Activity

City Distance Mag. Time & Date
Minimum magnitude displayed is 2.5.

Coastal Water Temperatures

Place Temperature

Stations

Nearby Weather Stations

Station Location Temp. Windchill Dew Point Humidity Wind Precip. Elev Updated Type
                   

Watches & Warnings

There are currently no watches in effect.